sensor_id;sensor_type;location;lat;lon;timestamp;temperature;humidity
52439;DHT22;38359;53.150;6.504;2023-02-28T00:01:03;5.30;99.90
52439;DHT22;38359;53.150;6.504;2023-02-28T00:11:29;5.00;99.90
52439;DHT22;38359;53.150;6.504;2023-02-28T00:21:55;5.20;99.90
52439;DHT22;38359;53.150;6.504;2023-02-28T00:32:20;5.20;99.90
52439;DHT22;38359;53.150;6.504;2023-02-28T00:42:46;5.00;99.90
52439;DHT22;38359;53.150;6.504;2023-02-28T00:53:12;5.30;99.90
52439;DHT22;38359;53.150;6.504;2023-02-28T01:03:38;5.10;99.90
52439;DHT22;38359;53.150;6.504;2023-02-28T01:14:05;5.20;99.90
52439;DHT22;38359;53.150;6.504;2023-02-28T01:24:32;5.10;99.90
52439;DHT22;38359;53.150;6.504;2023-02-28T01:34:58;5.40;99.90
52439;DHT22;38359;53.150;6.504;2023-02-28T01:45:31;5.10;99.90
52439;DHT22;38359;53.150;6.504;2023-02-28T01:55:57;5.20;99.90
52439;DHT22;38359;53.150;6.504;2023-02-28T02:06:49;5.20;99.90
52439;DHT22;38359;53.150;6.504;2023-02-28T02:39:15;5.10;99.90
52439;DHT22;38359;53.150;6.504;2023-02-28T02:50:08;5.20;99.90
52439;DHT22;38359;53.150;6.504;2023-02-28T03:00:43;5.30;99.90
52439;DHT22;38359;53.150;6.504;2023-02-28T03:11:13;5.50;99.90
52439;DHT22;38359;53.150;6.504;2023-02-28T03:32:51;5.70;99.90
52439;DHT22;38359;53.150;6.504;2023-02-28T03:43:29;5.80;99.90
52439;DHT22;38359;53.150;6.504;2023-02-28T03:54:02;5.10;99.90
52439;DHT22;38359;53.150;6.504;2023-02-28T04:04:31;5.10;99.90
52439;DHT22;38359;53.150;6.504;2023-02-28T04:14:57;5.80;99.90
52439;DHT22;38359;53.150;6.504;2023-02-28T04:25:22;5.50;99.90
52439;DHT22;38359;53.150;6.504;2023-02-28T04:35:59;5.00;99.90
52439;DHT22;38359;53.150;6.504;2023-02-28T04:46:27;5.50;99.90
52439;DHT22;38359;53.150;6.504;2023-02-28T04:56:53;4.80;99.90
52439;DHT22;38359;53.150;6.504;2023-02-28T05:07:20;4.80;99.90
52439;DHT22;38359;53.150;6.504;2023-02-28T05:17:46;5.20;99.90
52439;DHT22;38359;53.150;6.504;2023-02-28T05:28:12;5.00;99.90
52439;DHT22;38359;53.150;6.504;2023-02-28T05:38:38;4.50;99.90
52439;DHT22;38359;53.150;6.504;2023-02-28T05:49:04;4.80;99.90
52439;DHT22;38359;53.150;6.504;2023-02-28T05:59:30;4.40;99.90
52439;DHT22;38359;53.150;6.504;2023-02-28T06:09:56;4.80;99.90
52439;DHT22;38359;53.150;6.504;2023-02-28T06:20:22;5.00;99.90
52439;DHT22;38359;53.150;6.504;2023-02-28T06:30:49;4.60;99.90
52439;DHT22;38359;53.150;6.504;2023-02-28T06:41:14;4.80;99.90
52439;DHT22;38359;53.150;6.504;2023-02-28T06:51:43;4.10;99.90
52439;DHT22;38359;53.150;6.504;2023-02-28T07:02:10;4.00;99.90
52439;DHT22;38359;53.150;6.504;2023-02-28T07:12:36;3.80;99.90
52439;DHT22;38359;53.150;6.504;2023-02-28T07:23:02;3.80;99.90
52439;DHT22;38359;53.150;6.504;2023-02-28T07:33:28;4.00;99.90
52439;DHT22;38359;53.150;6.504;2023-02-28T07:43:54;4.40;99.90
52439;DHT22;38359;53.150;6.504;2023-02-28T07:54:21;3.80;99.90
52439;DHT22;38359;53.150;6.504;2023-02-28T08:04:46;4.50;99.90
52439;DHT22;38359;53.150;6.504;2023-02-28T08:15:16;4.10;99.90
52439;DHT22;38359;53.150;6.504;2023-02-28T08:25:42;4.90;99.90
52439;DHT22;38359;53.150;6.504;2023-02-28T08:36:09;5.00;99.90
52439;DHT22;38359;53.150;6.504;2023-02-28T08:46:34;5.10;99.90
52439;DHT22;38359;53.150;6.504;2023-02-28T08:57:00;5.10;99.90
52439;DHT22;38359;53.150;6.504;2023-02-28T09:07:26;5.20;99.90
52439;DHT22;38359;53.150;6.504;2023-02-28T09:17:52;4.90;99.90
52439;DHT22;38359;53.150;6.504;2023-02-28T09:28:18;5.60;99.90
52439;DHT22;38359;53.150;6.504;2023-02-28T09:38:45;5.80;99.90
52439;DHT22;38359;53.150;6.504;2023-02-28T09:49:16;5.60;99.90
52439;DHT22;38359;53.150;6.504;2023-02-28T10:10:43;5.10;99.90
52439;DHT22;38359;53.150;6.504;2023-02-28T10:21:28;5.00;99.90
52439;DHT22;38359;53.150;6.504;2023-02-28T10:32:01;5.70;99.90
52439;DHT22;38359;53.150;6.504;2023-02-28T10:42:29;5.40;99.90
52439;DHT22;38359;53.150;6.504;2023-02-28T10:53:28;5.50;99.90
52439;DHT22;38359;53.150;6.504;2023-02-28T11:03:58;5.80;99.90
52439;DHT22;38359;53.150;6.504;2023-02-28T11:14:27;5.50;99.90
52439;DHT22;38359;53.150;6.504;2023-02-28T11:25:01;6.20;99.90
52439;DHT22;38359;53.150;6.504;2023-02-28T11:35:34;6.30;99.90
52439;DHT22;38359;53.150;6.504;2023-02-28T11:46:06;6.40;99.90
52439;DHT22;38359;53.150;6.504;2023-02-28T11:56:52;6.50;99.90
52439;DHT22;38359;53.150;6.504;2023-02-28T12:07:35;6.80;99.90
52439;DHT22;38359;53.150;6.504;2023-02-28T12:29:28;7.10;99.90
52439;DHT22;38359;53.150;6.504;2023-02-28T12:40:02;6.90;99.90
52439;DHT22;38359;53.150;6.504;2023-02-28T12:50:37;7.30;99.90
52439;DHT22;38359;53.150;6.504;2023-02-28T13:01:42;7.70;99.90
52439;DHT22;38359;53.150;6.504;2023-02-28T13:12:20;8.30;99.90
52439;DHT22;38359;53.150;6.504;2023-02-28T13:22:50;8.80;99.90
52439;DHT22;38359;53.150;6.504;2023-02-28T13:33:35;8.80;99.90
52439;DHT22;38359;53.150;6.504;2023-02-28T13:44:07;8.30;99.90
52439;DHT22;38359;53.150;6.504;2023-02-28T14:05:46;11.60;99.90
52439;DHT22;38359;53.150;6.504;2023-02-28T14:16:14;12.90;99.90
52439;DHT22;38359;53.150;6.504;2023-02-28T14:26:56;14.00;99.90
52439;DHT22;38359;53.150;6.504;2023-02-28T14:37:30;12.70;99.90
52439;DHT22;38359;53.150;6.504;2023-02-28T14:48:01;13.40;99.90
52439;DHT22;38359;53.150;6.504;2023-02-28T14:58:32;14.90;99.90
52439;DHT22;38359;53.150;6.504;2023-02-28T15:09:16;11.60;99.90
52439;DHT22;38359;53.150;6.504;2023-02-28T15:19:45;14.70;99.90
52439;DHT22;38359;53.150;6.504;2023-02-28T15:30:17;16.00;99.90
52439;DHT22;38359;53.150;6.504;2023-02-28T15:40:51;15.10;99.90
52439;DHT22;38359;53.150;6.504;2023-02-28T15:51:36;14.70;99.90
52439;DHT22;38359;53.150;6.504;2023-02-28T16:02:21;11.50;99.90
52439;DHT22;38359;53.150;6.504;2023-02-28T16:12:56;9.80;99.90
52439;DHT22;38359;53.150;6.504;2023-02-28T16:23:22;8.30;99.90
52439;DHT22;38359;53.150;6.504;2023-02-28T16:33:48;8.40;99.90
52439;DHT22;38359;53.150;6.504;2023-02-28T16:44:30;8.90;99.90
52439;DHT22;38359;53.150;6.504;2023-02-28T16:54:57;8.00;99.90
52439;DHT22;38359;53.150;6.504;2023-02-28T17:05:26;8.00;99.90
52439;DHT22;38359;53.150;6.504;2023-02-28T17:15:54;7.70;99.90
52439;DHT22;38359;53.150;6.504;2023-02-28T17:26:21;7.30;99.90
52439;DHT22;38359;53.150;6.504;2023-02-28T17:36:51;6.90;99.90
52439;DHT22;38359;53.150;6.504;2023-02-28T17:47:17;6.40;99.90
52439;DHT22;38359;53.150;6.504;2023-02-28T17:57:43;6.30;99.90
52439;DHT22;38359;53.150;6.504;2023-02-28T18:08:10;6.00;99.90
52439;DHT22;38359;53.150;6.504;2023-02-28T18:18:37;5.60;99.90
52439;DHT22;38359;53.150;6.504;2023-02-28T18:29:04;5.30;99.90
52439;DHT22;38359;53.150;6.504;2023-02-28T18:39:30;5.10;99.90
52439;DHT22;38359;53.150;6.504;2023-02-28T18:49:56;4.90;99.90
52439;DHT22;38359;53.150;6.504;2023-02-28T19:00:22;5.20;99.90
52439;DHT22;38359;53.150;6.504;2023-02-28T19:10:50;4.80;99.90
52439;DHT22;38359;53.150;6.504;2023-02-28T19:21:18;4.50;99.90
52439;DHT22;38359;53.150;6.504;2023-02-28T19:31:45;4.40;99.90
52439;DHT22;38359;53.150;6.504;2023-02-28T19:42:16;4.20;99.90
52439;DHT22;38359;53.150;6.504;2023-02-28T19:52:42;3.80;99.90
52439;DHT22;38359;53.150;6.504;2023-02-28T20:03:09;3.60;99.90
52439;DHT22;38359;53.150;6.504;2023-02-28T20:13:35;4.00;99.90
52439;DHT22;38359;53.150;6.504;2023-02-28T20:24:01;3.00;99.90
52439;DHT22;38359;53.150;6.504;2023-02-28T20:34:27;2.90;99.90
52439;DHT22;38359;53.150;6.504;2023-02-28T20:44:54;3.00;99.90
52439;DHT22;38359;53.150;6.504;2023-02-28T20:55:19;2.90;99.90
52439;DHT22;38359;53.150;6.504;2023-02-28T21:05:46;2.70;99.90
52439;DHT22;38359;53.150;6.504;2023-02-28T21:16:15;2.80;99.90
52439;DHT22;38359;53.150;6.504;2023-02-28T21:26:43;2.30;99.90
52439;DHT22;38359;53.150;6.504;2023-02-28T21:37:09;2.20;99.90
52439;DHT22;38359;53.150;6.504;2023-02-28T21:47:35;2.00;99.90
52439;DHT22;38359;53.150;6.504;2023-02-28T21:58:01;2.10;99.90
52439;DHT22;38359;53.150;6.504;2023-02-28T22:08:27;1.80;99.90
52439;DHT22;38359;53.150;6.504;2023-02-28T22:18:53;1.80;99.90
52439;DHT22;38359;53.150;6.504;2023-02-28T22:29:19;2.00;99.90
52439;DHT22;38359;53.150;6.504;2023-02-28T22:39:46;1.70;99.90
52439;DHT22;38359;53.150;6.504;2023-02-28T22:50:12;1.60;99.90
52439;DHT22;38359;53.150;6.504;2023-02-28T23:00:37;1.50;99.90
52439;DHT22;38359;53.150;6.504;2023-02-28T23:11:03;1.60;99.90
52439;DHT22;38359;53.150;6.504;2023-02-28T23:21:29;1.50;99.90
52439;DHT22;38359;53.150;6.504;2023-02-28T23:31:55;1.40;99.90
52439;DHT22;38359;53.150;6.504;2023-02-28T23:42:21;1.20;99.90
52439;DHT22;38359;53.150;6.504;2023-02-28T23:52:47;1.20;99.90
